Time;durP1;ratioP1;P1;durP2;ratioP2;P2;SDS_P1;SDS_P2;PMS_P1;PMS_P2;Temp;Humidity;BMP_temperature;BMP_pressure;BME280_temperature;BME280_humidity;BME280_pressure;Samples;Min_cycle;Max_cycle;Signal;HPM_P1;HPM_P2
2023/05/26 00:00:18;;;;;;;44.30;40.00;;;;;;;11.81;100.00;98466.34;107106;1277;22611;-82
2023/05/26 00:03:07;;;;;;;43.80;39.60;;;;;;;11.80;100.00;98469.39;106981;1277;24205;-83
2023/05/26 00:05:39;;;;;;;42.00;38.30;;;;;;;11.80;100.00;98468.96;107063;1277;22671;-82
2023/05/26 00:08:09;;;;;;;43.00;39.20;;;;;;;11.82;100.00;98466.61;107118;1277;23000;-82
2023/05/26 00:10:37;;;;;;;42.20;38.60;;;;;;;11.85;100.00;98468.47;106952;1269;22799;-83
2023/05/26 00:13:06;;;;;;;41.20;37.70;;;;;;;11.87;100.00;98466.61;106949;1277;25047;-83
2023/05/26 00:15:35;;;;;;;43.10;39.30;;;;;;;11.90;100.00;98469.65;107307;1277;22535;-85
2023/05/26 00:18:05;;;;;;;43.60;39.90;;;;;;;11.91;100.00;98468.39;107392;1277;23177;-83
2023/05/26 00:20:34;;;;;;;42.60;38.70;;;;;;;11.94;100.00;98468.73;107904;1277;22545;-85
2023/05/26 00:23:02;;;;;;;43.80;39.90;;;;;;;11.94;100.00;98465.98;107983;1277;26524;-84
2023/05/26 00:25:30;;;;;;;43.40;39.50;;;;;;;11.94;100.00;98464.35;107740;1277;22635;-84
2023/05/26 00:27:58;;;;;;;43.50;39.30;;;;;;;11.96;100.00;98468.85;108423;1277;26604;-84
2023/05/26 00:30:26;;;;;;;44.30;40.40;;;;;;;11.95;100.00;98462.77;107675;1277;23326;-85
2023/05/26 00:32:54;;;;;;;44.30;40.40;;;;;;;11.96;100.00;98461.34;106994;1277;22586;-87
2023/05/26 00:35:22;;;;;;;45.00;40.90;;;;;;;11.97;100.00;98462.36;107010;1277;22514;-85
2023/05/26 00:37:50;;;;;;;46.20;42.10;;;;;;;11.98;100.00;98458.51;106931;1277;22561;-83
2023/05/26 00:40:19;;;;;;;46.70;41.90;;;;;;;11.98;100.00;98460.55;106701;1275;22545;-84
2023/05/26 00:42:47;;;;;;;44.90;40.60;;;;;;;11.99;100.00;98462.63;106812;1277;22575;-84
2023/05/26 00:45:15;;;;;;;46.30;42.20;;;;;;;12.01;100.00;98461.05;106895;1277;24230;-84
2023/05/26 00:47:43;;;;;;;46.00;41.30;;;;;;;12.03;100.00;98456.65;106864;1277;22592;-84
2023/05/26 00:50:16;;;;;;;43.30;39.50;;;;;;;12.05;100.00;98457.05;106899;1275;25338;-84
2023/05/26 00:52:45;;;;;;;43.70;39.90;;;;;;;12.07;100.00;98453.83;106872;1266;22812;-84
2023/05/26 00:55:13;;;;;;;44.90;40.90;;;;;;;12.05;100.00;98449.39;106879;1277;22545;-84
2023/05/26 01:01:25;;;;;;;47.20;42.70;;;;;;;12.01;100.00;98445.87;106670;1277;24238;-84
2023/05/26 01:03:54;;;;;;;44.60;40.80;;;;;;;12.01;100.00;98442.48;106743;1277;25367;-84
2023/05/26 01:06:22;;;;;;;42.50;38.80;;;;;;;11.99;100.00;98444.05;106747;1277;25330;-84
2023/05/26 01:08:51;;;;;;;44.20;40.10;;;;;;;12.01;100.00;98447.45;106796;1277;22856;-83
2023/05/26 01:11:30;;;;;;;43.30;39.20;;;;;;;12.03;100.00;98446.55;106864;1277;23925;-83
2023/05/26 01:14:04;;;;;;;46.20;41.90;;;;;;;12.07;100.00;98444.66;106838;1277;25259;-83
2023/05/26 01:16:39;;;;;;;46.20;41.90;;;;;;;12.12;100.00;98443.59;106811;1277;22846;-84
2023/05/26 01:19:40;;;;;;;46.10;42.10;;;;;;;12.15;100.00;98438.64;106860;1277;22525;-84
2023/05/26 01:22:38;;;;;;;45.70;41.60;;;;;;;12.15;100.00;98441.45;106899;1272;22788;-85
2023/05/26 01:25:25;;;;;;;45.20;41.20;;;;;;;12.12;100.00;98435.77;106645;1277;25550;-86
2023/05/26 01:28:12;;;;;;;45.50;41.60;;;;;;;12.07;100.00;98439.89;106887;1265;25169;-85
2023/05/26 01:30:43;;;;;;;43.90;39.60;;;;;;;12.04;100.00;98436.44;107026;1277;22633;-86
2023/05/26 01:33:11;;;;;;;43.90;39.90;;;;;;;12.01;100.00;98433.81;106941;1266;22534;-85
2023/05/26 01:35:41;;;;;;;44.60;40.40;;;;;;;12.00;100.00;98431.09;106922;1277;22527;-85
2023/05/26 01:38:09;;;;;;;44.70;40.70;;;;;;;11.98;100.00;98426.02;106841;1277;22527;-85
2023/05/26 01:40:41;;;;;;;44.60;40.40;;;;;;;11.95;100.00;98422.63;107025;1277;22629;-85
2023/05/26 01:43:42;;;;;;;43.60;39.70;;;;;;;11.95;100.00;98422.27;106915;1277;23280;-85
2023/05/26 01:46:32;;;;;;;45.90;42.00;;;;;;;11.97;100.00;98419.27;106867;1277;25352;-85
2023/05/26 01:49:04;;;;;;;45.00;40.90;;;;;;;11.95;100.00;98419.12;106881;1278;22567;-85
2023/05/26 01:51:34;;;;;;;46.40;42.20;;;;;;;11.95;100.00;98418.39;107087;1278;22536;-86
2023/05/26 01:54:03;;;;;;;48.30;44.10;;;;;;;11.95;100.00;98418.11;107109;1278;22562;-85
2023/05/26 01:56:34;;;;;;;48.80;44.20;;;;;;;11.95;100.00;98421.30;107847;1278;23899;-86
2023/05/26 01:59:59;;;;;;;49.80;45.40;;;;;;;11.92;100.00;98417.39;106777;1278;24126;-87
2023/05/26 02:02:27;;;;;;;48.10;43.30;;;;;;;11.95;100.00;98415.63;106741;1278;22574;-84
2023/05/26 02:04:55;;;;;;;51.90;47.20;;;;;;;11.92;100.00;98408.36;106818;1278;22580;-85
2023/05/26 02:07:24;;;;;;;49.10;44.50;;;;;;;12.01;100.00;98419.52;106798;1278;22542;-84
2023/05/26 02:09:53;;;;;;;50.90;46.40;;;;;;;12.03;100.00;98417.33;106732;1278;25315;-84
2023/05/26 02:12:23;;;;;;;47.90;43.60;;;;;;;12.02;100.00;98415.92;106795;1277;22782;-84
2023/05/26 02:14:51;;;;;;;49.90;45.40;;;;;;;12.02;100.00;98415.33;106696;1277;22877;-85
2023/05/26 02:17:19;;;;;;;53.10;48.30;;;;;;;12.01;100.00;98412.76;106969;1275;22527;-84
2023/05/26 02:19:48;;;;;;;51.30;46.90;;;;;;;11.99;100.00;98414.15;106743;1278;22531;-84
2023/05/26 02:22:18;;;;;;;49.60;44.80;;;;;;;11.96;100.00;98408.25;106805;1278;22526;-82
2023/05/26 02:24:47;;;;;;;46.40;42.30;;;;;;;11.93;100.00;98409.27;106899;1278;22778;-85
2023/05/26 02:27:15;;;;;;;44.90;41.10;;;;;;;11.86;100.00;98412.20;106886;1276;22631;-84
2023/05/26 02:29:46;;;;;;;45.70;41.80;;;;;;;11.76;100.00;98408.54;107021;1277;22536;-84
2023/05/26 02:32:15;;;;;;;50.20;45.60;;;;;;;11.67;100.00;98406.41;106945;1277;22535;-84
2023/05/26 02:34:44;;;;;;;49.30;45.00;;;;;;;11.58;100.00;98408.42;106961;1277;22861;-84
2023/05/26 02:37:12;;;;;;;48.20;43.80;;;;;;;11.53;100.00;98409.96;107030;1277;22531;-86
2023/05/26 02:39:41;;;;;;;44.80;41.00;;;;;;;11.45;100.00;98407.80;106924;1277;22647;-86
2023/05/26 02:42:09;;;;;;;43.30;39.30;;;;;;;11.33;100.00;98407.86;107052;1254;25665;-83
2023/05/26 02:44:37;;;;;;;50.30;46.10;;;;;;;11.19;100.00;98409.95;106761;1277;24251;-85
2023/05/26 02:47:05;;;;;;;56.60;51.80;;;;;;;11.11;100.00;98406.41;106869;1274;25250;-85
2023/05/26 02:49:33;;;;;;;52.10;47.50;;;;;;;11.10;100.00;98407.04;106887;1277;22664;-86
2023/05/26 02:52:02;;;;;;;49.40;45.00;;;;;;;11.11;100.00;98409.08;106852;1277;22549;-87
2023/05/26 02:54:30;;;;;;;47.50;43.20;;;;;;;11.10;100.00;98411.61;106717;1278;24195;-84
2023/05/26 02:56:58;;;;;;;47.80;43.60;;;;;;;10.99;100.00;98410.15;106772;1278;24279;-84
2023/05/26 02:59:26;;;;;;;48.00;43.90;;;;;;;10.91;100.00;98413.20;106757;1278;22573;-84
2023/05/26 03:01:54;;;;;;;49.60;45.20;;;;;;;10.79;100.00;98418.36;106753;1277;22647;-85
2023/05/26 03:04:22;;;;;;;50.90;46.20;;;;;;;10.70;100.00;98420.72;106832;1277;23890;-84
2023/05/26 03:06:50;;;;;;;47.90;43.90;;;;;;;10.64;100.00;98417.92;106820;1277;22602;-83
2023/05/26 03:09:20;;;;;;;48.00;43.80;;;;;;;10.51;100.00;98414.77;107414;1277;22525;-83
2023/05/26 03:11:48;;;;;;;47.40;43.60;;;;;;;10.36;100.00;98417.08;107020;1278;24383;-82
2023/05/26 03:14:17;;;;;;;48.40;44.30;;;;;;;10.25;100.00;98416.05;107006;1278;22648;-82
2023/05/26 03:16:45;;;;;;;48.10;43.90;;;;;;;10.31;100.00;98418.58;106952;1278;23273;-83
2023/05/26 03:19:14;;;;;;;49.40;45.20;;;;;;;10.34;100.00;98421.20;106745;1278;25505;-82
2023/05/26 03:21:42;;;;;;;52.80;48.00;;;;;;;10.39;100.00;98418.77;106765;1278;22514;-83
2023/05/26 03:24:18;;;;;;;50.60;46.00;;;;;;;10.46;100.00;98419.20;106828;1277;22737;-84
2023/05/26 03:26:47;;;;;;;50.40;45.90;;;;;;;10.50;100.00;98416.25;106854;1278;22593;-88
2023/05/26 03:29:15;;;;;;;49.70;45.30;;;;;;;10.56;100.00;98416.08;106850;1277;22527;-85
2023/05/26 03:31:43;;;;;;;50.50;46.10;;;;;;;10.59;100.00;98413.62;106788;1277;26071;-87
2023/05/26 03:34:12;;;;;;;53.00;48.40;;;;;;;10.64;100.00;98412.59;106778;1278;25463;-85
2023/05/26 03:36:40;;;;;;;55.10;50.40;;;;;;;10.72;100.00;98409.12;106749;1278;24396;-85
2023/05/26 03:39:16;;;;;;;50.20;45.80;;;;;;;10.80;100.00;98420.29;106745;1277;22646;-86
2023/05/26 03:41:44;;;;;;;50.20;45.60;;;;;;;10.87;100.00;98422.26;106760;1277;24246;-86
2023/05/26 03:44:12;;;;;;;54.00;49.20;;;;;;;10.96;100.00;98421.99;106775;1277;24326;-86
2023/05/26 03:46:40;;;;;;;55.60;50.80;;;;;;;11.02;100.00;98420.08;106845;1277;22547;-86
2023/05/26 03:49:09;;;;;;;48.70;44.60;;;;;;;11.08;100.00;98418.17;106754;1277;24349;-87
2023/05/26 03:51:37;;;;;;;45.30;41.30;;;;;;;11.15;100.00;98420.79;106946;1277;25517;-87
2023/05/26 03:54:05;;;;;;;45.30;41.40;;;;;;;11.10;100.00;98418.80;106781;1277;22546;-87
2023/05/26 03:56:33;;;;;;;45.40;41.50;;;;;;;11.04;100.00;98416.06;107011;1277;22630;-87
2023/05/26 03:59:02;;;;;;;52.40;47.60;;;;;;;11.11;100.00;98412.86;106832;1275;24382;-86
2023/05/26 04:01:31;;;;;;;57.60;52.20;;;;;;;11.17;100.00;98413.85;106849;1277;25418;-86
2023/05/26 04:04:00;;;;;;;50.80;46.30;;;;;;;11.21;100.00;98417.41;106856;1277;24184;-86
2023/05/26 04:06:28;;;;;;;51.00;46.40;;;;;;;11.27;100.00;98419.11;107038;1277;24268;-85
2023/05/26 04:08:56;;;;;;;50.80;46.30;;;;;;;11.34;100.00;98416.65;106831;1276;22537;-86
2023/05/26 04:11:25;;;;;;;51.00;46.40;;;;;;;11.42;100.00;98416.55;106955;1277;25358;-84
2023/05/26 04:13:53;;;;;;;49.40;44.80;;;;;;;11.47;100.00;98415.94;106921;1270;22645;-86
2023/05/26 04:16:21;;;;;;;49.70;45.00;;;;;;;11.54;100.00;98417.56;106856;1277;23034;-85
2023/05/26 04:18:49;;;;;;;50.60;46.00;;;;;;;11.62;100.00;98410.90;106954;1277;25067;-87
2023/05/26 04:21:17;;;;;;;50.20;45.50;;;;;;;11.69;100.00;98409.17;106962;1277;22641;-85
2023/05/26 04:23:52;;;;;;;48.60;44.00;;;;;;;11.77;100.00;98415.11;107043;1277;23145;-84
2023/05/26 04:26:24;;;;;;;48.00;43.50;;;;;;;11.84;100.00;98414.15;107296;1275;25547;-83
2023/05/26 04:29:15;;;;;;;49.20;44.70;;;;;;;11.92;100.00;98414.65;110117;1277;22922;-82
2023/05/26 04:31:53;;;;;;;49.30;44.90;;;;;;;11.99;100.00;98415.23;110187;1275;22288;-80
2023/05/26 04:34:44;;;;;;;49.90;45.40;;;;;;;12.07;100.00;98416.50;107009;1278;22599;-82
2023/05/26 04:37:23;;;;;;;49.70;45.30;;;;;;;12.17;100.00;98418.16;107159;1277;22595;-82
2023/05/26 04:39:51;;;;;;;53.00;48.10;;;;;;;12.24;100.00;98421.77;107201;1277;22619;-81
2023/05/26 04:42:20;;;;;;;51.90;47.50;;;;;;;12.29;100.00;98423.70;107243;1277;23574;-83
2023/05/26 04:44:48;;;;;;;51.70;46.80;;;;;;;12.33;100.00;98423.57;107126;1277;22536;-79
2023/05/26 04:47:16;;;;;;;50.00;45.20;;;;;;;12.43;100.00;98421.66;106999;1278;23444;-79
2023/05/26 04:49:45;;;;;;;49.70;44.70;;;;;;;12.49;100.00;98426.80;107015;1278;22559;-79
2023/05/26 04:52:14;;;;;;;49.00;44.30;;;;;;;12.51;100.00;98425.70;106957;1278;22722;-79
2023/05/26 04:54:42;;;;;;;53.80;48.00;;;;;;;12.57;100.00;98430.23;106927;1278;22576;-79
2023/05/26 04:57:12;;;;;;;53.90;48.80;;;;;;;12.62;100.00;98425.58;107071;1269;22569;-80
2023/05/26 04:59:55;;;;;;;53.80;48.10;;;;;;;12.66;100.00;98426.42;107078;1278;22542;-79
2023/05/26 05:02:33;;;;;;;51.10;46.50;;;;;;;12.70;100.00;98425.33;107008;1278;22528;-79
2023/05/26 05:05:07;;;;;;;48.40;44.10;;;;;;;12.71;100.00;98427.69;107007;1278;22549;-79
2023/05/26 05:07:36;;;;;;;48.00;43.80;;;;;;;12.78;100.00;98430.38;107162;1269;22634;-79
2023/05/26 05:10:05;;;;;;;46.30;42.20;;;;;;;12.82;100.00;98431.92;107131;1278;24080;-79
2023/05/26 05:12:34;;;;;;;47.30;43.00;;;;;;;12.83;100.00;98430.44;107329;1277;26518;-80
2023/05/26 05:15:05;;;;;;;50.20;45.20;;;;;;;12.89;100.00;98431.41;106993;1277;23144;-79
2023/05/26 05:17:35;;;;;;;49.20;44.60;;;;;;;12.96;100.00;98431.58;106886;1270;22531;-80
2023/05/26 05:20:04;;;;;;;50.60;45.80;;;;;;;12.99;100.00;98426.40;106873;1278;26943;-79
2023/05/26 05:22:45;;;;;;;52.40;47.30;;;;;;;13.02;100.00;98426.59;106961;1278;22631;-78
2023/05/26 05:25:17;;;;;;;50.50;45.80;;;;;;;13.05;100.00;98426.81;106941;1278;25284;-79
2023/05/26 05:27:45;;;;;;;53.10;48.50;;;;;;;13.07;100.00;98425.42;106923;1278;22567;-82
2023/05/26 05:30:15;;;;;;;51.60;47.00;;;;;;;13.07;100.00;98430.17;106877;1278;22599;-81
2023/05/26 05:32:43;;;;;;;52.70;48.10;;;;;;;13.08;100.00;98425.98;106893;1270;25419;-81
2023/05/26 05:35:12;;;;;;;50.20;45.90;;;;;;;13.12;100.00;98428.61;106806;1278;24245;-82
2023/05/26 05:37:40;;;;;;;51.40;46.70;;;;;;;13.18;100.00;98428.00;106844;1277;25446;-82
2023/05/26 05:40:10;;;;;;;51.10;46.60;;;;;;;13.24;100.00;98429.30;106948;1277;22528;-81
2023/05/26 05:42:38;;;;;;;53.70;48.80;;;;;;;13.30;100.00;98432.67;106987;1277;22531;-79
2023/05/26 05:45:07;;;;;;;50.40;45.60;;;;;;;13.36;100.00;98427.17;106774;1277;24275;-80
2023/05/26 05:48:07;;;;;;;48.30;43.90;;;;;;;13.45;100.00;98428.39;106963;1270;22541;-76
2023/05/26 05:50:56;;;;;;;49.90;45.20;;;;;;;13.57;100.00;98437.23;106590;1269;196861;-77
2023/05/26 05:53:24;;;;;;;52.50;47.60;;;;;;;13.62;100.00;98440.55;106691;1277;25315;-81
2023/05/26 05:55:53;;;;;;;51.00;46.50;;;;;;;13.66;100.00;98442.21;106945;1277;22574;-79
2023/05/26 05:58:21;;;;;;;40.40;36.30;;;;;;;13.65;100.00;98440.55;106957;1277;24345;-84
2023/05/26 06:00:49;;;;;;;41.20;37.30;;;;;;;13.79;100.00;98440.34;107181;1277;22549;-83
2023/05/26 06:03:18;;;;;;;38.90;35.30;;;;;;;13.98;100.00;98442.56;107057;1277;22542;-81
2023/05/26 06:05:46;;;;;;;38.40;35.00;;;;;;;14.13;100.00;98443.66;107177;1277;24237;-79
2023/05/26 06:08:14;;;;;;;35.60;32.40;;;;;;;14.34;100.00;98446.02;107129;1277;24298;-83
2023/05/26 06:10:43;;;;;;;38.10;34.70;;;;;;;14.53;100.00;98449.99;107124;1277;22662;-79
2023/05/26 06:13:12;;;;;;;45.60;41.50;;;;;;;14.52;100.00;98455.27;107166;1278;25265;-84
2023/05/26 06:15:40;;;;;;;44.10;39.80;;;;;;;14.43;100.00;98452.46;107172;1277;22531;-89
2023/05/26 06:18:08;;;;;;;40.20;36.60;;;;;;;14.36;100.00;98450.18;107136;1278;22661;-88
2023/05/26 06:20:37;;;;;;;40.20;36.00;;;;;;;14.31;100.00;98453.18;107055;1277;22655;-88
2023/05/26 06:23:05;;;;;;;40.80;36.80;;;;;;;14.27;100.00;98455.95;106871;1278;22616;-84
2023/05/26 06:25:33;;;;;;;40.10;35.90;;;;;;;14.24;100.00;98456.36;106925;1277;25510;-86
2023/05/26 06:28:02;;;;;;;39.50;35.80;;;;;;;14.22;100.00;98461.53;106978;1278;25300;-85
2023/05/26 06:30:31;;;;;;;41.80;37.50;;;;;;;14.18;100.00;98458.02;106937;1278;24202;-86
2023/05/26 06:33:11;;;;;;;44.40;40.30;;;;;;;14.19;100.00;98460.28;106953;1278;24221;-85
2023/05/26 06:35:40;;;;;;;44.00;39.60;;;;;;;14.16;100.00;98462.34;106903;1278;22869;-84
2023/05/26 06:38:08;;;;;;;41.40;37.30;;;;;;;14.17;100.00;98463.23;107013;1278;22520;-84
2023/05/26 06:40:36;;;;;;;46.80;41.80;;;;;;;14.26;100.00;98466.61;107284;1278;25389;-84
2023/05/26 06:43:04;;;;;;;45.40;41.00;;;;;;;14.32;100.00;98462.13;107330;1278;22636;-87
2023/05/26 06:45:32;;;;;;;43.90;39.50;;;;;;;14.40;100.00;98459.20;107278;1277;26552;-84
2023/05/26 06:48:00;;;;;;;41.10;37.10;;;;;;;14.45;100.00;98461.30;107567;1277;22799;-84
2023/05/26 06:50:29;;;;;;;42.30;38.10;;;;;;;14.49;100.00;98458.05;107307;1277;22649;-83
2023/05/26 06:52:58;;;;;;;45.10;40.60;;;;;;;14.58;100.00;98457.96;107070;1277;25513;-83
2023/05/26 06:55:26;;;;;;;44.90;40.40;;;;;;;14.64;100.00;98459.11;107051;1278;25709;-81
2023/05/26 06:57:54;;;;;;;44.90;39.80;;;;;;;14.72;100.00;98454.65;106888;1277;22582;-82
2023/05/26 07:00:23;;;;;;;44.10;39.80;;;;;;;14.75;100.00;98452.17;106879;1278;22554;-83
2023/05/26 07:02:58;;;;;;;42.60;38.20;;;;;;;14.77;100.00;98453.40;106738;1278;22605;-82
2023/05/26 07:05:29;;;;;;;41.10;37.20;;;;;;;14.85;100.00;98450.02;106969;1278;22542;-84
2023/05/26 07:07:57;;;;;;;41.10;37.40;;;;;;;14.97;100.00;98454.63;106941;1278;22524;-83
2023/05/26 07:10:26;;;;;;;41.30;37.30;;;;;;;15.08;100.00;98455.91;107084;1278;25330;-83
2023/05/26 07:12:54;;;;;;;39.00;35.20;;;;;;;15.16;100.00;98456.16;106936;1278;25271;-82
2023/05/26 07:15:26;;;;;;;37.60;34.40;;;;;;;15.27;100.00;98461.02;107136;1277;25350;-83
2023/05/26 07:17:55;;;;;;;37.80;34.50;;;;;;;15.38;100.00;98460.98;106986;1277;22535;-83
2023/05/26 07:20:23;;;;;;;37.80;34.10;;;;;;;15.37;98.71;98465.60;107108;1272;24269;-83
2023/05/26 07:22:52;;;;;;;37.30;33.50;;;;;;;15.34;99.94;98469.40;107078;1277;22518;-82
2023/05/26 07:25:23;;;;;;;36.20;32.50;;;;;;;15.34;100.00;98465.92;106977;1278;25223;-83
2023/05/26 07:27:52;;;;;;;37.20;33.80;;;;;;;15.39;100.00;98468.27;107048;1278;22655;-83
2023/05/26 07:30:20;;;;;;;38.30;34.50;;;;;;;15.45;100.00;98467.84;107199;1277;26635;-81
2023/05/26 07:33:05;;;;;;;34.90;31.70;;;;;;;15.53;99.83;98467.05;107163;1277;22528;-83
2023/05/26 07:35:34;;;;;;;34.90;31.40;;;;;;;15.55;99.53;98467.47;106885;1277;24228;-82
2023/05/26 07:38:03;;;;;;;33.90;30.70;;;;;;;15.61;99.93;98471.54;107018;1277;22547;-82
2023/05/26 07:40:34;;;;;;;35.90;32.50;;;;;;;15.70;99.60;98472.34;107035;1277;25239;-83
2023/05/26 07:43:03;;;;;;;35.80;32.30;;;;;;;15.74;99.75;98470.81;107163;1277;22592;-84
2023/05/26 07:45:31;;;;;;;35.80;32.20;;;;;;;15.79;99.35;98471.52;107069;1278;25277;-85
2023/05/26 07:47:59;;;;;;;35.30;31.60;;;;;;;15.85;99.38;98472.73;106982;1262;22529;-85
2023/05/26 07:50:28;;;;;;;36.00;32.50;;;;;;;15.90;97.46;98476.05;106947;1275;23034;-84
2023/05/26 07:52:56;;;;;;;39.60;35.50;;;;;;;15.93;97.87;98473.00;107023;1278;22782;-83
2023/05/26 07:55:24;;;;;;;38.60;34.60;;;;;;;15.98;97.14;98476.36;107010;1278;25281;-83
2023/05/26 07:57:52;;;;;;;42.50;38.40;;;;;;;16.00;96.98;98470.77;106865;1278;22576;-83
2023/05/26 08:00:21;;;;;;;39.10;35.10;;;;;;;16.01;94.83;98468.92;106894;1278;23019;-82
2023/05/26 08:02:49;;;;;;;36.70;32.90;;;;;;;15.97;95.28;98471.23;107023;1278;25458;-81
2023/05/26 08:05:17;;;;;;;36.00;32.50;;;;;;;16.00;95.50;98470.98;107096;1278;22541;-84
2023/05/26 08:07:45;;;;;;;37.00;33.50;;;;;;;16.03;94.03;98474.23;107034;1278;22687;-85
2023/05/26 08:10:13;;;;;;;38.40;34.80;;;;;;;16.00;95.12;98474.33;106949;1278;22651;-82
2023/05/26 08:12:41;;;;;;;38.40;34.80;;;;;;;16.02;93.31;98477.05;106895;1278;23904;-83
2023/05/26 08:15:14;;;;;;;37.60;33.70;;;;;;;16.02;94.38;98475.80;107092;1277;22521;-82
2023/05/26 08:17:48;;;;;;;37.20;33.40;;;;;;;16.07;94.58;98479.61;107113;1277;23335;-83
2023/05/26 08:20:16;;;;;;;36.90;32.90;;;;;;;16.14;95.10;98476.11;107438;1278;22637;-81
2023/05/26 08:22:45;;;;;;;38.20;34.50;;;;;;;16.20;94.20;98477.94;107347;1278;22518;-82
2023/05/26 08:25:13;;;;;;;37.00;33.10;;;;;;;16.25;94.12;98473.27;108096;1277;22514;-85
2023/05/26 08:27:41;;;;;;;38.20;34.50;;;;;;;16.41;95.41;98477.21;107052;1277;25443;-82
2023/05/26 08:30:09;;;;;;;42.70;38.60;;;;;;;16.67;94.87;98471.93;107082;1277;22534;-84
2023/05/26 08:32:37;;;;;;;39.60;36.00;;;;;;;16.89;94.13;98472.33;107127;1277;25295;-81
2023/05/26 08:35:06;;;;;;;40.00;34.90;;;;;;;17.12;94.63;98469.22;107097;1277;22524;-81
2023/05/26 08:37:34;;;;;;;39.50;35.90;;;;;;;17.39;94.52;98460.57;107553;1277;22547;-81
2023/05/26 08:40:05;;;;;;;40.30;36.40;;;;;;;17.65;94.89;98461.27;107674;1277;24112;-79
2023/05/26 08:42:41;;;;;;;37.50;33.80;;;;;;;17.90;93.83;98456.30;107051;1278;22580;-81
2023/05/26 08:45:11;;;;;;;32.70;29.50;;;;;;;18.16;93.81;98456.23;107195;1276;24191;-79
2023/05/26 08:47:42;;;;;;;32.20;29.00;;;;;;;18.36;90.97;98457.95;107056;1277;22524;-81
2023/05/26 08:50:11;;;;;;;255.60;39.90;;;;;;;18.55;91.60;98459.05;107053;1259;22926;-80
2023/05/26 08:52:41;;;;;;;179.20;36.00;;;;;;;18.81;92.13;98460.66;107081;1277;22524;-80
2023/05/26 08:55:30;;;;;;;39.10;26.80;;;;;;;19.20;92.19;98459.92;107121;1278;22540;-81
2023/05/26 08:57:59;;;;;;;29.30;26.20;;;;;;;19.47;89.25;98458.17;106983;1278;22643;-80
2023/05/26 09:00:29;;;;;;;427.00;60.40;;;;;;;19.59;87.23;98459.23;106954;1266;23170;-81
2023/05/26 09:02:58;;;;;;;172.50;39.00;;;;;;;19.70;87.95;98451.93;107156;1277;23967;-83
2023/05/26 09:05:29;;;;;;;27.80;25.10;;;;;;;19.80;86.65;98456.08;107128;1277;23415;-83
2023/05/26 09:07:57;;;;;;;27.30;24.50;;;;;;;19.84;84.05;98454.80;107089;1278;22566;-84
2023/05/26 09:10:31;;;;;;;36.20;23.70;;;;;;;19.84;83.17;98458.52;107153;1277;25220;-85
2023/05/26 09:13:08;;;;;;;88.70;29.60;;;;;;;19.92;83.32;98455.95;107034;1278;22525;-83
2023/05/26 09:15:37;;;;;;;26.40;23.60;;;;;;;20.02;83.38;98455.54;107015;1276;22566;-83
2023/05/26 09:18:10;;;;;;;28.20;23.00;;;;;;;20.15;81.40;98449.80;107136;1277;22799;-85
2023/05/26 09:20:47;;;;;;;31.50;22.00;;;;;;;20.29;83.63;98447.99;107150;1277;22535;-84
2023/05/26 09:23:19;;;;;;;33.60;21.60;;;;;;;20.53;83.34;98444.98;107117;1277;24257;-83
2023/05/26 09:25:50;;;;;;;21.80;19.50;;;;;;;20.84;83.23;98447.58;107008;1272;23037;-82
2023/05/26 09:28:20;;;;;;;40.30;20.40;;;;;;;21.02;81.88;98444.18;107110;1277;22544;-83
2023/05/26 09:30:48;;;;;;;24.50;18.80;;;;;;;21.18;80.64;98439.00;107074;1277;23936;-85
2023/05/26 09:33:18;;;;;;;20.10;18.00;;;;;;;21.15;79.95;98438.54;107127;1277;25386;-84
2023/05/26 09:35:48;;;;;;;25.30;17.90;;;;;;;20.91;75.38;98444.30;107222;1278;22530;-85
2023/05/26 09:38:18;;;;;;;23.00;17.20;;;;;;;20.61;78.77;98442.85;107172;1277;22755;-84
2023/05/26 09:40:49;;;;;;;16.80;14.50;;;;;;;20.43;77.04;98443.90;107137;1277;22730;-83
2023/05/26 09:43:22;;;;;;;16.40;11.60;;;;;;;20.08;74.04;98449.45;107178;1277;25326;-82
2023/05/26 09:45:50;;;;;;;14.40;10.50;;;;;;;19.64;74.94;98454.96;107109;1277;25382;-82
2023/05/26 09:48:18;;;;;;;15.70;10.90;;;;;;;19.33;74.54;98460.48;107051;1261;24116;-82
2023/05/26 09:50:51;;;;;;;16.10;11.60;;;;;;;19.09;75.15;98462.14;107053;1276;22527;-82
2023/05/26 09:53:20;;;;;;;14.40;11.30;;;;;;;18.87;75.95;98461.64;107171;1264;23405;-83
2023/05/26 09:55:50;;;;;;;16.50;10.90;;;;;;;18.73;76.86;98462.89;107010;1272;22717;-83
2023/05/26 09:58:22;;;;;;;19.20;10.80;;;;;;;18.67;77.40;98463.43;107215;1277;22487;-81
2023/05/26 10:00:53;;;;;;;16.70;12.10;;;;;;;18.64;78.05;98463.42;107082;1277;22545;-84
2023/05/26 10:03:21;;;;;;;15.60;11.30;;;;;;;18.65;77.89;98458.15;107099;1277;22528;-83
2023/05/26 10:05:52;;;;;;;16.00;12.00;;;;;;;18.64;77.69;98460.99;107118;1277;22586;-84
2023/05/26 10:08:20;;;;;;;15.00;10.80;;;;;;;18.67;77.98;98463.42;107158;1277;25331;-82
2023/05/26 10:10:50;;;;;;;13.70;10.00;;;;;;;18.73;78.33;98462.27;107076;1277;25269;-82
2023/05/26 10:13:18;;;;;;;14.30;10.40;;;;;;;18.85;76.52;98467.03;107163;1277;24193;-81
2023/05/26 10:15:48;;;;;;;14.80;9.50;;;;;;;18.86;75.88;98465.91;107035;1277;24264;-81
2023/05/26 10:18:16;;;;;;;16.00;9.70;;;;;;;18.83;74.69;98467.70;107130;1277;24230;-80
2023/05/26 10:20:47;;;;;;;12.70;9.40;;;;;;;18.82;74.61;98465.30;107182;1277;22567;-81
2023/05/26 10:23:22;;;;;;;11.30;9.20;;;;;;;18.83;74.02;98470.48;107223;1277;22574;-79
2023/05/26 10:25:50;;;;;;;14.70;8.60;;;;;;;18.90;74.89;98467.61;106989;1277;22660;-81
2023/05/26 10:28:40;;;;;;;11.50;8.30;;;;;;;19.05;74.79;98467.79;107182;1277;25220;-82
2023/05/26 10:31:08;;;;;;;12.20;8.20;;;;;;;19.24;75.81;98465.42;107157;1277;25335;-82
2023/05/26 10:33:46;;;;;;;10.00;7.40;;;;;;;19.39;74.36;98466.20;107144;1263;22548;-80
2023/05/26 10:36:16;;;;;;;16.10;8.30;;;;;;;19.52;74.18;98461.69;107074;1277;22539;-83
2023/05/26 10:38:47;;;;;;;13.20;8.00;;;;;;;19.65;73.60;98456.09;107155;1277;22549;-83
2023/05/26 10:41:32;;;;;;;15.10;8.50;;;;;;;19.73;72.01;98457.44;107074;1277;23315;-82
2023/05/26 10:44:02;;;;;;;13.90;7.30;;;;;;;19.75;69.89;98451.86;107057;1277;25510;-83
2023/05/26 10:46:38;;;;;;;13.50;7.50;;;;;;;19.81;70.34;98450.80;106926;1277;22520;-80
2023/05/26 10:49:20;;;;;;;9.70;7.30;;;;;;;19.87;68.19;98451.73;107115;1277;25220;-80
2023/05/26 10:51:54;;;;;;;10.20;7.30;;;;;;;19.89;67.99;98451.73;106750;1277;25371;-79
2023/05/26 10:54:24;;;;;;;8.60;7.10;;;;;;;19.94;70.16;98449.23;107079;1277;25982;-79
2023/05/26 10:56:54;;;;;;;12.10;8.00;;;;;;;20.20;71.24;98444.14;106770;1277;24327;-78
2023/05/26 10:59:34;;;;;;;13.10;6.90;;;;;;;20.45;71.64;98437.48;107119;1270;22555;-79
2023/05/26 11:02:04;;;;;;;10.40;6.80;;;;;;;20.56;69.14;98443.36;107085;1277;22748;-80
2023/05/26 11:04:46;;;;;;;10.40;8.30;;;;;;;20.46;67.65;98446.73;107050;1277;22587;-79
2023/05/26 11:07:18;;;;;;;9.30;8.30;;;;;;;20.19;67.18;98448.42;107134;1262;25438;-79
2023/05/26 11:09:56;;;;;;;9.80;7.90;;;;;;;19.97;66.87;98453.37;107069;1277;25245;-79
2023/05/26 11:12:35;;;;;;;12.80;7.70;;;;;;;19.68;66.39;98457.52;107119;1277;22537;-79
2023/05/26 11:15:26;;;;;;;9.30;7.40;;;;;;;19.44;66.92;98457.40;106990;1277;23929;-79
2023/05/26 11:18:08;;;;;;;10.80;7.10;;;;;;;19.31;68.34;98456.83;107134;1277;25335;-79
2023/05/26 11:20:36;;;;;;;12.60;7.80;;;;;;;19.36;69.05;98451.89;107036;1277;25309;-79
2023/05/26 11:23:05;;;;;;;10.30;8.70;;;;;;;19.39;68.01;98453.48;107021;1277;22531;-82
2023/05/26 11:25:47;;;;;;;;;;;;;;;19.28;67.41;98453.92;107065;1276;24263;-82